Time;durP1;ratioP1;P1;durP2;ratioP2;P2;SDS_P1;SDS_P2;PMS_P1;PMS_P2;Temp;Humidity;BMP_temperature;BMP_pressure;BME280_temperature;BME280_humidity;BME280_pressure;Samples;Min_cycle;Max_cycle;Signal;HPM_P1;HPM_P2
2022/05/25 00:01:42;;;;;;;8.25;5.45;;;10.10;93.70;;;;;;5104345;28;20085;-77
2022/05/25 00:04:09;;;;;;;7.63;5.75;;;10.10;93.70;;;;;;5103480;28;20068;-77
2022/05/25 00:06:34;;;;;;;8.05;5.65;;;10.20;93.70;;;;;;5103064;28;20537;-77
2022/05/25 00:09:00;;;;;;;6.93;5.22;;;10.20;93.60;;;;;;5104933;28;20020;-78
2022/05/25 00:11:26;;;;;;;10.25;5.50;;;10.20;93.50;;;;;;5103651;28;20471;-77
2022/05/25 00:13:51;;;;;;;7.47;5.35;;;10.20;93.60;;;;;;5106444;28;20040;-78
2022/05/25 00:16:17;;;;;;;8.50;5.55;;;10.10;93.50;;;;;;5105340;28;20063;-77
2022/05/25 00:21:29;;;;;;;7.65;4.72;;;10.10;93.60;;;;;;5103989;28;20030;-77
2022/05/25 00:23:54;;;;;;;6.97;4.88;;;10.00;93.60;;;;;;5106337;28;20023;-77
2022/05/25 00:26:20;;;;;;;8.55;5.95;;;9.90;93.70;;;;;;5101164;28;20464;-77
2022/05/25 00:28:45;;;;;;;7.22;5.07;;;10.00;93.80;;;;;;5106521;28;20019;-78
2022/05/25 00:31:12;;;;;;;7.57;5.60;;;9.90;94.00;;;;;;5105098;28;20028;-78
2022/05/25 00:33:38;;;;;;;11.65;6.00;;;9.90;94.10;;;;;;5100424;27;20028;-78
2022/05/25 00:36:04;;;;;;;13.23;5.38;;;9.90;94.20;;;;;;5100050;28;20031;-78
2022/05/25 00:38:29;;;;;;;8.23;5.80;;;10.00;94.30;;;;;;5105555;28;20110;-78
2022/05/25 00:40:57;;;;;;;9.73;6.25;;;10.00;94.20;;;;;;5104070;28;20027;-77
2022/05/25 00:43:23;;;;;;;8.02;6.07;;;10.10;94.20;;;;;;5104690;28;20051;-77
2022/05/25 00:45:54;;;;;;;10.60;6.43;;;10.10;94.30;;;;;;5103761;27;20020;-77
2022/05/25 00:48:43;;;;;;;7.28;5.25;;;10.10;94.00;;;;;;5106610;28;20028;-77
2022/05/25 00:51:21;;;;;;;8.55;5.55;;;10.20;94.00;;;;;;5105424;28;20024;-78
2022/05/25 00:54:11;;;;;;;7.88;5.35;;;10.20;93.90;;;;;;5106010;28;20504;-77
2022/05/25 00:56:41;;;;;;;8.32;5.38;;;10.20;93.70;;;;;;5096210;28;20039;-78
2022/05/25 00:59:17;;;;;;;10.30;5.53;;;10.10;93.70;;;;;;5105266;28;20580;-78
2022/05/25 01:01:43;;;;;;;7.35;4.95;;;10.10;93.60;;;;;;5103480;28;20039;-78
2022/05/25 01:04:11;;;;;;;7.55;5.15;;;10.10;93.50;;;;;;5103099;28;20035;-78
2022/05/25 01:06:48;;;;;;;8.68;5.63;;;10.10;93.70;;;;;;5105814;28;20012;-77
2022/05/25 01:09:38;;;;;;;11.15;5.65;;;10.10;93.70;;;;;;5102909;28;20085;-78
2022/05/25 01:12:09;;;;;;;8.43;5.45;;;10.10;93.80;;;;;;5102800;28;20538;-78
2022/05/25 01:14:53;;;;;;;7.95;4.97;;;10.10;93.70;;;;;;5102611;27;20050;-78
2022/05/25 01:17:22;;;;;;;7.47;5.25;;;10.00;93.70;;;;;;5098125;28;20080;-78
2022/05/25 01:20:14;;;;;;;7.63;5.47;;;10.00;93.70;;;;;;5100148;27;20050;-78
2022/05/25 01:23:02;;;;;;;9.85;6.10;;;10.00;93.80;;;;;;5096579;28;20100;-76
2022/05/25 01:25:46;;;;;;;8.15;5.65;;;9.90;93.80;;;;;;5065367;28;20039;-76
2022/05/25 01:28:36;;;;;;;8.98;5.88;;;9.90;94.00;;;;;;5105174;28;20247;-77
2022/05/25 01:31:08;;;;;;;8.30;6.33;;;9.90;94.00;;;;;;5094506;28;20043;-76
2022/05/25 01:33:45;;;;;;;9.52;6.35;;;10.00;94.10;;;;;;5097981;27;20288;-77
2022/05/25 01:36:39;;;;;;;7.80;5.63;;;10.10;94.00;;;;;;5103753;28;20027;-77
2022/05/25 01:39:08;;;;;;;10.65;6.10;;;10.10;93.90;;;;;;5098922;28;20085;-77
2022/05/25 01:41:52;;;;;;;10.20;6.22;;;10.10;93.80;;;;;;5112108;28;20099;-78
2022/05/25 01:44:24;;;;;;;9.18;6.38;;;10.20;93.80;;;;;;5112924;28;20127;-79
2022/05/25 01:46:55;;;;;;;8.45;6.07;;;10.30;93.70;;;;;;5108009;28;20029;-79
2022/05/25 01:49:25;;;;;;;11.38;6.75;;;10.30;93.50;;;;;;5100569;28;20012;-77
2022/05/25 01:51:57;;;;;;;11.37;6.10;;;10.40;93.50;;;;;;5099972;28;20107;-77
2022/05/25 01:54:26;;;;;;;10.80;6.97;;;10.40;93.30;;;;;;5096761;28;20020;-77
2022/05/25 01:56:55;;;;;;;9.85;6.07;;;10.40;93.30;;;;;;5105029;28;20035;-77
2022/05/25 01:59:22;;;;;;;9.38;6.82;;;10.50;93.10;;;;;;5100371;28;20114;-77
2022/05/25 02:04:19;;;;;;;8.88;6.43;;;10.50;93.10;;;;;;5093264;28;20039;-76
2022/05/25 02:04:40;;;;;;;7.85;5.68;;;10.50;93.00;;;;;;5101126;28;20462;-77
2022/05/25 02:07:18;;;;;;;8.68;5.80;;;10.50;93.00;;;;;;5107994;28;20067;-77
2022/05/25 02:10:13;;;;;;;7.95;6.28;;;10.50;93.10;;;;;;5099819;28;20318;-77
2022/05/25 02:12:48;;;;;;;8.43;6.20;;;10.50;93.10;;;;;;5093917;28;20023;-77
2022/05/25 02:15:42;;;;;;;11.77;6.40;;;10.50;93.20;;;;;;5100546;28;20028;-77
2022/05/25 02:18:25;;;;;;;8.68;5.60;;;10.50;93.10;;;;;;5103341;28;21146;-77
2022/05/25 02:21:17;;;;;;;9.50;6.50;;;10.50;93.00;;;;;;5092998;28;20024;-77
2022/05/25 02:24:09;;;;;;;10.00;6.60;;;10.50;93.00;;;;;;5101653;28;20027;-77
2022/05/25 02:26:46;;;;;;;10.90;7.18;;;10.40;93.00;;;;;;5096136;28;20074;-77
2022/05/25 02:29:18;;;;;;;11.70;6.32;;;10.30;93.10;;;;;;5105040;28;20032;-76
2022/05/25 02:31:48;;;;;;;10.00;6.85;;;10.30;93.10;;;;;;5102960;28;20440;-77
2022/05/25 02:34:16;;;;;;;9.68;6.85;;;10.20;93.20;;;;;;5106889;27;20024;-77
2022/05/25 02:36:44;;;;;;;9.02;6.63;;;10.10;93.30;;;;;;5101612;28;20710;-77
2022/05/25 02:39:11;;;;;;;8.55;6.75;;;10.10;93.40;;;;;;5104168;28;20444;-77
2022/05/25 02:41:46;;;;;;;9.57;7.03;;;10.00;93.40;;;;;;5102444;28;20048;-77
2022/05/25 02:44:12;;;;;;;10.45;7.80;;;9.90;93.50;;;;;;5104731;28;20362;-77
2022/05/25 02:46:38;;;;;;;11.70;7.72;;;9.80;93.70;;;;;;5103769;28;20026;-76
2022/05/25 02:49:03;;;;;;;11.98;8.40;;;9.70;93.90;;;;;;5096608;28;20059;-76
2022/05/25 02:51:29;;;;;;;10.32;7.43;;;9.60;93.80;;;;;;5104323;28;20067;-76
2022/05/25 02:53:54;;;;;;;11.13;7.88;;;9.50;94.10;;;;;;5095952;28;20012;-76
2022/05/25 02:56:20;;;;;;;11.77;7.88;;;9.50;94.20;;;;;;5099522;28;20032;-76
2022/05/25 02:58:45;;;;;;;11.93;8.43;;;9.30;94.20;;;;;;5102161;28;20073;-76
2022/05/25 03:01:11;;;;;;;12.55;8.40;;;9.30;94.50;;;;;;5102318;28;20043;-76
2022/05/25 03:03:37;;;;;;;12.23;8.38;;;9.20;94.40;;;;;;5098718;28;20035;-76
2022/05/25 03:06:05;;;;;;;12.30;8.90;;;9.10;94.70;;;;;;5108285;28;20038;-76
2022/05/25 03:08:31;;;;;;;14.27;9.73;;;9.10;94.70;;;;;;5111800;28;20031;-78
2022/05/25 03:10:56;;;;;;;12.32;8.80;;;9.10;94.90;;;;;;5108121;28;20075;-79
2022/05/25 03:13:22;;;;;;;15.25;9.07;;;9.00;95.00;;;;;;5111229;28;20059;-78
2022/05/25 03:15:48;;;;;;;12.48;8.85;;;8.90;95.10;;;;;;5110443;28;20023;-78
2022/05/25 03:18:13;;;;;;;14.43;9.93;;;8.90;95.20;;;;;;5109091;28;20019;-79
2022/05/25 03:20:39;;;;;;;16.88;9.50;;;8.90;95.40;;;;;;5110841;28;20096;-78
2022/05/25 03:23:04;;;;;;;17.08;10.50;;;8.90;95.40;;;;;;5106764;28;20238;-79
2022/05/25 03:25:30;;;;;;;16.77;10.23;;;8.90;95.60;;;;;;5115047;28;20092;-79
2022/05/25 03:27:55;;;;;;;14.85;10.55;;;8.80;95.60;;;;;;5107271;28;20551;-79
2022/05/25 03:30:21;;;;;;;13.88;9.43;;;8.80;95.60;;;;;;5111229;28;20102;-78
2022/05/25 03:32:47;;;;;;;16.65;10.95;;;8.70;95.60;;;;;;5112724;28;20035;-78
2022/05/25 03:35:13;;;;;;;18.48;10.77;;;8.80;95.80;;;;;;5099379;27;20467;-77
2022/05/25 03:37:39;;;;;;;16.58;11.25;;;8.80;95.90;;;;;;5105379;27;20059;-76
2022/05/25 03:40:09;;;;;;;16.77;11.52;;;8.80;95.80;;;;;;5104718;28;20055;-76
2022/05/25 03:42:35;;;;;;;17.70;11.38;;;8.70;95.90;;;;;;5108404;28;20052;-76
2022/05/25 03:45:04;;;;;;;19.35;10.60;;;8.70;95.90;;;;;;5106860;28;20033;-76
2022/05/25 03:47:30;;;;;;;19.05;11.73;;;8.70;96.10;;;;;;5107707;28;20027;-76
2022/05/25 03:49:56;;;;;;;16.65;11.50;;;8.70;96.10;;;;;;5102345;28;20132;-76
2022/05/25 03:52:23;;;;;;;20.67;13.02;;;8.70;96.10;;;;;;5107139;28;20475;-76
2022/05/25 03:54:49;;;;;;;17.60;11.65;;;8.60;96.10;;;;;;5103819;28;20114;-76
2022/05/25 03:57:14;;;;;;;19.27;12.30;;;8.70;96.10;;;;;;5105629;27;20030;-78
2022/05/25 03:59:40;;;;;;;21.27;12.52;;;8.70;96.30;;;;;;5108560;28;20036;-79
2022/05/25 04:02:05;;;;;;;20.92;11.77;;;8.70;96.30;;;;;;5106774;28;20664;-79
2022/05/25 04:04:31;;;;;;;21.85;12.43;;;8.70;96.30;;;;;;5108891;28;20397;-79
2022/05/25 04:06:57;;;;;;;20.60;13.85;;;8.80;96.40;;;;;;5107082;28;20016;-78
2022/05/25 04:09:22;;;;;;;25.73;14.60;;;8.80;96.40;;;;;;5106012;28;20028;-78
2022/05/25 04:11:49;;;;;;;21.27;12.90;;;8.90;96.40;;;;;;5113098;28;20030;-79
2022/05/25 04:14:15;;;;;;;24.88;13.50;;;8.90;96.40;;;;;;5110027;28;20085;-79
2022/05/25 04:16:42;;;;;;;25.42;14.70;;;9.00;96.50;;;;;;5111111;28;20027;-78
2022/05/25 04:19:08;;;;;;;26.38;13.85;;;9.00;96.50;;;;;;5101163;28;20051;-71
2022/05/25 04:21:34;;;;;;;27.27;14.20;;;9.00;96.50;;;;;;5103483;28;20563;-72
2022/05/25 04:24:00;;;;;;;24.25;14.50;;;9.10;96.60;;;;;;5104104;28;20088;-72
2022/05/25 04:26:28;;;;;;;25.27;13.63;;;9.10;96.50;;;;;;5099932;28;20036;-72
2022/05/25 04:28:54;;;;;;;27.48;15.65;;;9.10;96.50;;;;;;5096227;28;20234;-72
2022/05/25 04:31:19;;;;;;;24.95;14.52;;;9.20;96.50;;;;;;5102215;28;20379;-72
2022/05/25 04:33:45;;;;;;;27.15;14.77;;;9.20;96.50;;;;;;5102072;28;20499;-72
2022/05/25 04:36:11;;;;;;;26.45;15.23;;;9.30;96.50;;;;;;5099943;28;20031;-73
2022/05/25 04:38:36;;;;;;;26.30;14.95;;;9.30;96.40;;;;;;5099040;28;20478;-72
2022/05/25 04:41:02;;;;;;;29.05;15.13;;;9.30;96.40;;;;;;5102304;28;20340;-72
2022/05/25 04:43:28;;;;;;;25.73;15.60;;;9.40;96.50;;;;;;5097856;28;20505;-73
2022/05/25 04:45:54;;;;;;;28.02;15.45;;;9.50;96.50;;;;;;5102778;28;20035;-71
2022/05/25 04:48:23;;;;;;;27.13;14.85;;;9.50;96.40;;;;;;5106062;28;20219;-73
2022/05/25 04:50:49;;;;;;;24.58;15.65;;;9.60;96.40;;;;;;5102618;28;20080;-72
2022/05/25 04:53:18;;;;;;;23.95;14.90;;;9.60;96.30;;;;;;5103413;28;20039;-75
2022/05/25 04:58:47;;;;;;;24.80;14.63;;;9.70;96.20;;;;;;5010920;28;20278;-75
2022/05/25 05:01:14;;;;;;;22.52;15.05;;;9.70;96.20;;;;;;5073836;28;20035;-73
2022/05/25 05:03:41;;;;;;;25.27;15.20;;;9.80;96.10;;;;;;5100562;28;20067;-73
2022/05/25 05:06:08;;;;;;;20.40;14.57;;;9.80;96.10;;;;;;5098590;28;20016;-74
2022/05/25 05:08:34;;;;;;;22.10;14.98;;;10.00;96.10;;;;;;5101212;28;20031;-74
2022/05/25 05:11:16;;;;;;;23.42;15.20;;;10.10;96.00;;;;;;5098134;28;20583;-74
2022/05/25 05:13:41;;;;;;;22.50;14.95;;;10.20;95.90;;;;;;5099442;28;20031;-74
2022/05/25 05:16:14;;;;;;;24.67;15.13;;;10.20;95.80;;;;;;5096567;28;20118;-74
2022/05/25 05:18:42;;;;;;;23.15;14.30;;;10.30;95.60;;;;;;5091933;28;20027;-75
2022/05/25 05:21:09;;;;;;;24.98;15.98;;;10.40;95.50;;;;;;5099906;28;20031;-75
2022/05/25 05:23:37;;;;;;;22.40;14.52;;;10.60;95.30;;;;;;5103307;28;20038;-76
2022/05/25 05:26:03;;;;;;;21.50;14.05;;;10.60;94.90;;;;;;5103580;28;20439;-74
2022/05/25 05:28:32;;;;;;;21.00;14.75;;;10.70;94.70;;;;;;5101906;28;20039;-74
2022/05/25 05:30:59;;;;;;;18.15;13.73;;;10.80;94.70;;;;;;5099149;28;20101;-75
2022/05/25 05:33:27;;;;;;;18.15;12.77;;;11.00;94.40;;;;;;5095998;27;20084;-75
2022/05/25 05:36:05;;;;;;;16.95;12.93;;;11.00;94.10;;;;;;5101869;28;20024;-75
2022/05/25 05:38:31;;;;;;;18.42;12.80;;;11.10;94.00;;;;;;5110641;27;20024;-74
2022/05/25 05:40:57;;;;;;;16.65;13.27;;;11.20;93.80;;;;;;5104016;27;20032;-74
2022/05/25 05:43:23;;;;;;;15.13;12.10;;;11.30;93.50;;;;;;5101805;28;20043;-76
2022/05/25 05:45:53;;;;;;;15.55;12.05;;;11.50;93.00;;;;;;5103762;28;20050;-75
2022/05/25 05:48:21;;;;;;;17.02;12.50;;;11.50;92.60;;;;;;5103363;28;20054;-75
2022/05/25 05:50:50;;;;;;;15.10;11.90;;;11.80;92.70;;;;;;5104824;28;20027;-75
2022/05/25 05:53:16;;;;;;;14.48;11.55;;;11.80;92.00;;;;;;5098309;28;20038;-75
2022/05/25 05:55:43;;;;;;;15.55;11.30;;;11.90;92.00;;;;;;5101676;28;20373;-75
2022/05/25 05:58:09;;;;;;;14.20;11.13;;;12.00;91.70;;;;;;5105591;28;20355;-75
2022/05/25 06:00:34;;;;;;;15.35;11.13;;;12.00;90.90;;;;;;5101018;28;20030;-74
2022/05/25 06:03:01;;;;;;;12.55;10.25;;;12.10;90.80;;;;;;5101469;28;20088;-75
2022/05/25 06:05:27;;;;;;;14.00;10.48;;;12.30;90.60;;;;;;5100969;28;20031;-75
2022/05/25 06:07:53;;;;;;;12.48;9.70;;;12.40;90.40;;;;;;5100441;28;20380;-75
2022/05/25 06:10:18;;;;;;;13.00;9.73;;;12.50;89.90;;;;;;5100230;27;20030;-75
2022/05/25 06:12:44;;;;;;;12.00;9.20;;;12.60;89.40;;;;;;5105905;27;20039;-75
2022/05/25 06:20:38;;;;;;;13.95;8.80;;;12.90;88.10;;;;;;5096809;28;20108;-72
2022/05/25 06:23:04;;;;;;;12.57;8.40;;;13.00;87.50;;;;;;5101120;28;20111;-72
2022/05/25 06:25:29;;;;;;;11.77;8.82;;;13.00;87.00;;;;;;5100514;28;20027;-71
2022/05/25 06:27:55;;;;;;;11.65;7.65;;;13.10;87.10;;;;;;5106108;28;20412;-71
2022/05/25 06:30:21;;;;;;;12.15;8.60;;;13.30;87.10;;;;;;5098913;28;20020;-71
2022/05/25 06:32:46;;;;;;;10.95;8.27;;;13.30;86.10;;;;;;5100265;28;20050;-73
2022/05/25 06:35:13;;;;;;;11.20;7.40;;;13.30;86.50;;;;;;5093289;28;20054;-73
2022/05/25 06:37:39;;;;;;;11.15;7.68;;;13.60;86.80;;;;;;5108801;28;20573;-73
2022/05/25 06:40:04;;;;;;;12.88;7.07;;;13.60;85.40;;;;;;5095980;28;20118;-73
2022/05/25 06:42:30;;;;;;;11.25;8.18;;;13.70;85.30;;;;;;5101090;28;20135;-74
2022/05/25 06:44:55;;;;;;;9.77;7.38;;;13.80;84.70;;;;;;5102186;28;20035;-74
2022/05/25 06:47:21;;;;;;;9.60;7.53;;;14.00;85.20;;;;;;5105719;28;20066;-75
2022/05/25 06:49:47;;;;;;;10.18;7.75;;;14.20;84.50;;;;;;5102379;28;20077;-75
2022/05/25 06:52:13;;;;;;;11.25;7.25;;;14.40;83.70;;;;;;5100253;28;20028;-75
2022/05/25 06:54:40;;;;;;;11.35;7.57;;;14.20;82.30;;;;;;5096263;28;20195;-74
2022/05/25 06:57:05;;;;;;;13.15;7.53;;;14.30;82.60;;;;;;5101245;28;20028;-75
2022/05/25 06:59:32;;;;;;;8.80;6.50;;;14.60;83.50;;;;;;5104180;28;20085;-75
2022/05/25 07:01:57;;;;;;;9.32;5.85;;;14.50;81.20;;;;;;5103382;28;20061;-74
2022/05/25 07:04:23;;;;;;;10.77;6.65;;;14.60;80.50;;;;;;5104701;28;20054;-74
2022/05/25 07:06:48;;;;;;;8.38;6.13;;;14.70;80.90;;;;;;5100789;28;20039;-73
2022/05/25 07:09:14;;;;;;;9.90;5.90;;;14.80;80.50;;;;;;5096543;28;20032;-73
2022/05/25 07:11:42;;;;;;;8.60;4.97;;;14.90;78.40;;;;;;5102567;28;20016;-73
2022/05/25 07:14:07;;;;;;;7.70;5.32;;;14.90;77.20;;;;;;5104525;28;20027;-73
2022/05/25 07:16:33;;;;;;;10.93;6.47;;;15.20;78.20;;;;;;5103831;28;20396;-74
2022/05/25 07:18:59;;;;;;;9.70;5.90;;;15.50;78.10;;;;;;5104250;28;20035;-73
2022/05/25 07:21:27;;;;;;;7.72;5.35;;;15.60;77.70;;;;;;5103835;28;20020;-73
2022/05/25 07:23:56;;;;;;;9.20;4.65;;;15.90;77.40;;;;;;5102338;28;20036;-73
2022/05/25 07:26:23;;;;;;;7.85;4.50;;;15.90;75.10;;;;;;5098699;28;21013;-73
2022/05/25 07:28:51;;;;;;;5.97;3.90;;;16.00;74.20;;;;;;5103414;28;20099;-73
2022/05/25 07:31:25;;;;;;;9.05;4.32;;;15.60;73.30;;;;;;5102602;28;20024;-73
2022/05/25 07:34:20;;;;;;;6.75;3.78;;;15.60;71.90;;;;;;5099607;28;20537;-73
2022/05/25 07:36:50;;;;;;;4.60;3.22;;;15.60;73.10;;;;;;5092271;28;20461;-73
2022/05/25 07:39:19;;;;;;;6.00;3.80;;;15.60;72.80;;;;;;5102758;28;20379;-73
2022/05/25 07:41:49;;;;;;;4.90;3.50;;;15.80;71.60;;;;;;5094002;28;20111;-74
2022/05/25 07:44:20;;;;;;;6.18;4.30;;;16.20;73.20;;;;;;5097557;28;20032;-73
2022/05/25 07:46:45;;;;;;;7.45;3.70;;;16.50;72.70;;;;;;5096722;28;20088;-73
2022/05/25 07:49:11;;;;;;;6.18;3.58;;;16.80;71.20;;;;;;5103292;28;20032;-73
2022/05/25 07:51:37;;;;;;;6.32;3.55;;;16.60;67.20;;;;;;5098734;28;20039;-73
2022/05/25 07:54:03;;;;;;;6.30;3.70;;;16.80;68.50;;;;;;5103181;28;20027;-73
2022/05/25 07:56:34;;;;;;;5.80;3.75;;;17.00;69.90;;;;;;5098549;27;20047;-73
2022/05/25 07:59:02;;;;;;;6.47;4.00;;;16.90;67.30;;;;;;5103396;28;20477;-73
2022/05/25 08:07:02;;;;;;;5.85;3.70;;;17.10;68.80;;;;;;5104324;28;20080;-73
2022/05/25 08:09:30;;;;;;;6.05;3.60;;;17.40;67.50;;;;;;5103260;28;20057;-73
2022/05/25 08:11:57;;;;;;;6.38;4.18;;;17.30;66.00;;;;;;5097701;28;20077;-73
2022/05/25 08:14:25;;;;;;;7.50;4.32;;;16.70;65.50;;;;;;5101544;28;20019;-74
2022/05/25 08:16:51;;;;;;;6.78;4.07;;;16.00;67.00;;;;;;5095986;28;20038;-73
2022/05/25 08:19:17;;;;;;;5.53;3.72;;;15.60;70.30;;;;;;5094668;28;20039;-73
2022/05/25 08:21:42;;;;;;;7.43;3.60;;;15.30;69.60;;;;;;5095431;28;20039;-73
2022/05/25 08:24:08;;;;;;;5.63;3.55;;;16.00;69.40;;;;;;5105833;28;20039;-73
2022/05/25 08:26:34;;;;;;;6.88;4.20;;;15.60;68.90;;;;;;5092380;27;20513;-73
2022/05/25 08:28:59;;;;;;;6.35;3.80;;;15.60;69.70;;;;;;5105364;27;20358;-72
2022/05/25 08:31:25;;;;;;;6.55;4.15;;;15.90;69.90;;;;;;5102434;28;20032;-73
2022/05/25 08:33:50;;;;;;;5.82;3.13;;;16.30;68.80;;;;;;5105098;27;20458;-72
2022/05/25 08:36:16;;;;;;;6.45;3.38;;;16.80;65.00;;;;;;5103773;28;20030;-72
2022/05/25 08:38:41;;;;;;;6.72;3.90;;;17.10;64.70;;;;;;5104646;27;20085;-74
2022/05/25 08:41:08;;;;;;;6.22;3.30;;;17.70;64.90;;;;;;5097551;27;20043;-70
2022/05/25 08:43:44;;;;;;;5.90;3.10;;;17.80;63.50;;;;;;5094419;27;20046;-71
2022/05/25 08:46:14;;;;;;;4.18;2.28;;;18.10;61.50;;;;;;5098275;28;20024;-70
2022/05/25 08:48:41;;;;;;;3.80;2.60;;;17.80;60.90;;;;;;5100462;27;20028;-70
2022/05/25 08:51:13;;;;;;;4.75;2.80;;;18.30;60.70;;;;;;5100821;28;20572;-70
2022/05/25 08:53:40;;;;;;;5.20;2.67;;;18.00;61.70;;;;;;5101313;28;20027;-71
2022/05/25 08:56:29;;;;;;;3.33;2.20;;;17.50;62.00;;;;;;5098327;28;20028;-71
2022/05/25 08:59:37;;;;;;;3.15;2.10;;;17.90;61.00;;;;;;5103811;28;20377;-70
2022/05/25 09:02:29;;;;;;;3.90;2.60;;;18.40;61.80;;;;;;5100372;27;20034;-71
2022/05/25 09:05:16;;;;;;;5.03;2.08;;;18.30;59.40;;;;;;5092168;28;20023;-71
2022/05/25 09:07:50;;;;;;;3.40;1.50;;;18.10;57.40;;;;;;5094794;27;20504;-70
2022/05/25 09:10:17;;;;;;;3.60;1.52;;;17.70;59.30;;;;;;5099128;28;20467;-71
2022/05/25 09:12:48;;;;;;;3.40;1.50;;;16.90;59.50;;;;;;5104125;28;20031;-70
2022/05/25 09:15:26;;;;;;;2.58;1.25;;;17.40;62.10;;;;;;5105476;28;20046;-71
2022/05/25 09:18:00;;;;;;;2.67;1.70;;;17.70;60.20;;;;;;5094614;27;20036;-71
2022/05/25 09:20:32;;;;;;;3.58;1.70;;;17.30;60.00;;;;;;5104474;27;20491;-71
2022/05/25 09:22:59;;;;;;;3.90;1.73;;;17.20;61.90;;;;;;5099957;28;20123;-70
2022/05/25 09:25:25;;;;;;;3.00;1.42;;;17.40;62.40;;;;;;5093978;28;20108;-71
2022/05/25 09:27:56;;;;;;;3.13;1.70;;;17.80;62.90;;;;;;5101108;27;20030;-75
2022/05/25 09:30:22;;;;;;;;;;;17.60;60.20;;;;;;5108064;27;20024;-73
2022/05/25 09:33:01;;;;;;;2.33;1.42;;;18.00;59.20;;;;;;5091735;28;19918;-76
2022/05/25 09:35:31;;;;;;;2.30;1.40;;;18.10;59.00;;;;;;5107418;27;20061;-73
2022/05/25 09:37:59;;;;;;;2.30;1.20;;;17.70;60.30;;;;;;5097138;28;20031;-74
2022/05/25 09:40:33;;;;;;;1.52;0.90;;;17.40;61.40;;;;;;5100829;28;20169;-72
2022/05/25 09:43:03;;;;;;;2.80;1.17;;;17.40;58.20;;;;;;5097140;28;20097;-72
2022/05/25 09:45:53;;;;;;;2.42;1.00;;;17.40;58.40;;;;;;5101173;28;20126;-72
2022/05/25 09:48:32;;;;;;;1.15;0.80;;;17.90;57.80;;;;;;5100450;28;20447;-72
2022/05/25 09:51:04;;;;;;;2.67;0.90;;;18.60;58.60;;;;;;5101482;28;20433;-72
2022/05/25 09:53:41;;;;;;;3.40;1.40;;;18.00;57.50;;;;;;5100672;28;20019;-72
2022/05/25 09:56:30;;;;;;;1.52;1.08;;;17.80;58.60;;;;;;5105452;28;20089;-71
2022/05/25 09:59:04;;;;;;;1.98;0.80;;;17.50;58.90;;;;;;5100826;28;20240;-72
2022/05/25 10:01:44;;;;;;;1.88;1.00;;;17.50;61.20;;;;;;5097296;27;20032;-71
2022/05/25 10:04:56;;;;;;;1.92;1.05;;;17.50;60.60;;;;;;5100991;28;20483;-72
2022/05/25 10:07:32;;;;;;;4.60;1.27;;;18.20;58.90;;;;;;5101535;28;20080;-72
2022/05/25 10:10:02;;;;;;;2.15;1.20;;;18.90;57.90;;;;;;5096731;28;20051;-72
2022/05/25 10:12:30;;;;;;;1.90;0.93;;;19.30;57.50;;;;;;5093817;28;20081;-72
2022/05/25 10:15:04;;;;;;;3.22;1.05;;;19.70;55.80;;;;;;5101108;28;20081;-72
2022/05/25 10:17:38;;;;;;;2.05;0.93;;;19.30;54.40;;;;;;5101782;28;20034;-72
2022/05/25 10:20:27;;;;;;;1.67;0.90;;;19.30;55.60;;;;;;5099984;28;20059;-72
2022/05/25 10:23:18;;;;;;;2.45;1.00;;;19.30;55.00;;;;;;5090277;28;20104;-72
2022/05/25 10:26:17;;;;;;;1.45;0.80;;;19.30;53.70;;;;;;5098394;28;20016;-72
2022/05/25 10:28:55;;;;;;;1.48;0.85;;;19.30;53.20;;;;;;5086224;28;20061;-73
2022/05/25 10:37:01;;;;;;;2.05;0.98;;;18.30;55.50;;;;;;5104353;27;20379;-72
2022/05/25 10:39:29;;;;;;;2.40;0.90;;;18.60;56.30;;;;;;5099711;28;20397;-72
2022/05/25 10:42:03;;;;;;;2.15;0.98;;;18.40;55.80;;;;;;5099913;28;20649;-72
2022/05/25 10:44:55;;;;;;;2.38;0.73;;;17.80;57.20;;;;;;5100080;28;20043;-72
2022/05/25 10:47:44;;;;;;;1.27;0.68;;;18.00;54.80;;;;;;5102016;28;20032;-71
2022/05/25 10:50:30;;;;;;;0.95;0.73;;;19.00;54.30;;;;;;5097154;28;20023;-71
2022/05/25 10:53:04;;;;;;;2.22;0.80;;;19.40;53.10;;;;;;5101163;28;20031;-72
2022/05/25 10:55:52;;;;;;;1.40;0.40;;;19.60;50.70;;;;;;5099119;28;20487;-72
2022/05/25 10:58:37;;;;;;;0.60;0.57;;;19.60;53.30;;;;;;5091485;28;20044;-71
2022/05/25 11:01:38;;;;;;;0.43;0.40;;;19.70;51.10;;;;;;5103962;28;20039;-71
2022/05/25 11:04:33;;;;;;;1.40;0.60;;;20.00;50.50;;;;;;5090295;28;20475;-71
2022/05/25 11:07:17;;;;;;;0.93;0.60;;;20.10;48.00;;;;;;5092567;28;20032;-71
2022/05/25 11:10:11;;;;;;;0.68;0.50;;;20.60;49.10;;;;;;5097606;28;20108;-72
2022/05/25 11:13:00;;;;;;;0.73;0.40;;;20.70;47.90;;;;;;5102234;28;20027;-73
2022/05/25 11:15:45;;;;;;;1.58;0.40;;;20.50;49.00;;;;;;5091851;28;20367;-72
2022/05/25 11:18:26;;;;;;;1.85;0.55;;;20.60;47.00;;;;;;5099046;28;20024;-73
2022/05/25 11:20:51;;;;;;;0.65;0.52;;;20.70;48.20;;;;;;5100715;28;20070;-72
2022/05/25 11:23:47;;;;;;;1.75;0.80;;;21.00;48.50;;;;;;5098472;28;20060;-72
2022/05/25 11:26:41;;;;;;;1.73;0.70;;;20.40;48.70;;;;;;5101358;28;20169;-72
2022/05/25 11:29:43;;;;;;;4.35;0.77;;;19.90;51.50;;;;;;5102063;28;20039;-72
2022/05/25 11:32:33;;;;;;;1.83;0.52;;;20.50;48.90;;;;;;5102591;28;20053;-72
2022/05/25 11:35:17;;;;;;;2.40;0.60;;;20.80;49.80;;;;;;5101751;27;20027;-71
2022/05/25 11:38:06;;;;;;;0.43;0.43;;;19.90;47.80;;;;;;5093843;28;20040;-71
2022/05/25 11:40:50;;;;;;;0.70;0.43;;;20.00;48.50;;;;;;5099561;28;20185;-71
2022/05/25 11:43:40;;;;;;;2.08;0.60;;;20.30;47.50;;;;;;5103226;27;20048;-71
2022/05/25 11:46:16;;;;;;;1.17;0.40;;;20.50;47.80;;;;;;5101229;28;20414;-72
2022/05/25 11:49:15;;;;;;;2.53;0.55;;;20.90;47.30;;;;;;5098837;28;20032;-71
2022/05/25 11:51:49;;;;;;;0.40;0.40;;;21.60;47.30;;;;;;5105568;28;20034;-73
2022/05/25 11:54:45;;;;;;;0.90;0.50;;;21.60;43.30;;;;;;5099540;28;20024;-73
2022/05/25 11:57:50;;;;;;;1.48;0.50;;;21.80;44.00;;;;;;5103314;28;20021;-73
2022/05/25 12:00:46;;;;;;;0.55;0.30;;;21.80;46.10;;;;;;5094482;28;20051;-73
2022/05/25 12:03:45;;;;;;;3.17;0.30;;;21.20;46.90;;;;;;5095692;28;20372;-72
2022/05/25 12:06:39;;;;;;;1.50;0.55;;;20.00;46.70;;;;;;5094302;28;20039;-72
2022/05/25 12:09:09;;;;;;;0.77;0.32;;;20.40;46.20;;;;;;5096890;28;20027;-73
2022/05/25 12:11:48;;;;;;;0.73;0.40;;;21.00;46.10;;;;;;5099898;28;20123;-72
2022/05/25 12:14:45;;;;;;;1.98;0.55;;;21.00;45.10;;;;;;5105830;28;20067;-73
2022/05/25 12:17:44;;;;;;;1.17;0.47;;;21.60;43.60;;;;;;5094403;28;20027;-73
2022/05/25 12:20:13;;;;;;;2.67;0.65;;;22.60;42.70;;;;;;5099708;28;20536;-73
2022/05/25 12:22:49;;;;;;;3.60;0.40;;;22.50;43.20;;;;;;5099115;28;20036;-72
2022/05/25 12:25:16;;;;;;;0.95;0.45;;;21.40;41.90;;;;;;5104085;28;20349;-73
2022/05/25 12:27:45;;;;;;;0.95;0.35;;;21.10;45.10;;;;;;5103428;28;20031;-73
2022/05/25 12:30:15;;;;;;;1.53;0.50;;;21.00;46.10;;;;;;5103199;28;20028;-73
2022/05/25 12:32:42;;;;;;;1.30;0.50;;;21.90;47.60;;;;;;5096948;28;20028;-71
2022/05/25 12:35:10;;;;;;;1.98;0.40;;;22.90;43.70;;;;;;5099374;27;20050;-71
2022/05/25 12:37:40;;;;;;;2.83;0.50;;;22.90;43.20;;;;;;5104060;28;20114;-73
2022/05/25 12:40:08;;;;;;;1.98;0.30;;;22.90;41.20;;;;;;5105603;28;20039;-73
2022/05/25 12:42:37;;;;;;;3.47;0.65;;;22.00;42.80;;;;;;5103800;27;20153;-71
2022/05/25 12:51:07;;;;;;;1.02;0.60;;;20.30;46.50;;;;;;5038403;28;20511;-72
2022/05/25 12:53:38;;;;;;;1.35;0.50;;;20.70;46.00;;;;;;5076331;28;20051;-73
2022/05/25 12:56:30;;;;;;;0.85;0.60;;;20.90;46.50;;;;;;5098702;27;20481;-73
2022/05/25 12:59:02;;;;;;;1.08;0.75;;;20.30;47.50;;;;;;5101924;28;20475;-72
2022/05/25 13:01:34;;;;;;;0.90;0.60;;;20.20;48.10;;;;;;5100945;28;20040;-72
2022/05/25 13:04:12;;;;;;;1.25;0.70;;;21.00;46.30;;;;;;5101939;28;20436;-73
2022/05/25 13:06:38;;;;;;;1.63;0.70;;;22.00;45.50;;;;;;5101919;28;20043;-73
2022/05/25 13:09:11;;;;;;;0.73;0.63;;;21.70;43.90;;;;;;5100267;28;20027;-73
2022/05/25 13:11:46;;;;;;;0.60;0.50;;;21.00;45.20;;;;;;5097071;28;20028;-73
2022/05/25 13:14:16;;;;;;;1.83;0.70;;;21.20;46.30;;;;;;5099722;28;20130;-73
2022/05/25 13:16:41;;;;;;;2.15;0.50;;;21.40;45.50;;;;;;5105297;28;20455;-73
2022/05/25 13:19:32;;;;;;;0.80;0.50;;;21.50;44.00;;;;;;5101937;28;20032;-73
2022/05/25 13:22:06;;;;;;;1.02;0.55;;;21.10;43.90;;;;;;5097395;28;20406;-72
2022/05/25 13:25:08;;;;;;;2.80;0.60;;;22.20;42.20;;;;;;5100070;28;20429;-73
2022/05/25 13:28:09;;;;;;;1.23;0.60;;;22.20;42.60;;;;;;5104278;28;20467;-72
2022/05/25 13:31:09;;;;;;;1.15;0.70;;;22.10;42.30;;;;;;5092756;28;20024;-72
2022/05/25 13:33:41;;;;;;;1.13;0.50;;;22.00;44.00;;;;;;5103104;27;20130;-72
2022/05/25 13:36:16;;;;;;;2.38;0.80;;;23.00;43.30;;;;;;5096546;28;20399;-72
2022/05/25 13:38:54;;;;;;;1.85;0.70;;;22.40;42.90;;;;;;5090316;28;20151;-72
2022/05/25 13:41:28;;;;;;;1.45;0.70;;;21.40;45.00;;;;;;5098480;28;20028;-72